createdAt,value
2022-10-19T00:00:58.902Z,11.75
2022-10-19T00:03:58.621Z,11.687
2022-10-19T00:06:58.121Z,11.687
2022-10-19T00:09:58.958Z,11.875
2022-10-19T00:12:59.485Z,12.125
2022-10-19T00:15:58.842Z,12.5
2022-10-19T00:18:58.670Z,12.437
2022-10-19T00:21:58.644Z,12.562
2022-10-19T00:24:59.462Z,12.0
2022-10-19T00:27:58.444Z,11.687
2022-10-19T00:30:59.160Z,11.687
2022-10-19T00:33:59.405Z,11.687
2022-10-19T00:36:58.451Z,11.687
2022-10-19T00:39:58.419Z,12.062
2022-10-19T00:43:03.370Z,12.187
2022-10-19T00:45:59.469Z,12.312
2022-10-19T00:49:01.130Z,12.312
2022-10-19T00:51:58.299Z,12.25
2022-10-19T00:54:58.780Z,11.937
2022-10-19T00:57:58.318Z,11.875
2022-10-19T01:00:59.965Z,11.812
2022-10-19T01:03:59.096Z,11.687
2022-10-19T01:06:59.034Z,11.75
2022-10-19T01:09:58.995Z,11.875
2022-10-19T01:12:59.057Z,12.125
2022-10-19T01:15:58.999Z,12.25
2022-10-19T01:18:58.998Z,12.375
2022-10-19T01:21:59.045Z,12.375
2022-10-19T01:24:58.891Z,12.375
2022-10-19T01:27:58.845Z,12.25
2022-10-19T01:30:59.855Z,12.312
2022-10-19T01:33:58.714Z,12.187
2022-10-19T01:36:58.636Z,12.125
2022-10-19T01:39:58.800Z,12.187
2022-10-19T01:42:58.840Z,12.187
2022-10-19T01:45:58.642Z,12.187
2022-10-19T01:48:58.860Z,12.187
2022-10-19T01:54:58.493Z,12.25
2022-10-19T01:57:58.296Z,12.25
2022-10-19T02:00:59.495Z,12.25
2022-10-19T02:03:59.096Z,12.25
2022-10-19T02:06:59.210Z,12.312
2022-10-19T02:09:59.121Z,12.312
2022-10-19T02:12:58.925Z,12.312
2022-10-19T02:15:59.251Z,12.312
2022-10-19T02:18:58.412Z,12.375
2022-10-19T02:21:59.080Z,12.437
2022-10-19T02:24:59.381Z,12.437
2022-10-19T02:27:58.071Z,12.437
2022-10-19T02:30:59.399Z,12.437
2022-10-19T02:33:59.011Z,12.437
2022-10-19T02:36:58.938Z,12.5
2022-10-19T02:39:59.326Z,12.5
2022-10-19T02:42:58.755Z,12.5
2022-10-19T02:45:58.791Z,12.5
2022-10-19T02:48:58.461Z,12.5
2022-10-19T02:51:58.522Z,12.437
2022-10-19T02:54:59.083Z,12.375
2022-10-19T02:57:59.540Z,12.375
2022-10-19T03:00:59.052Z,12.375
2022-10-19T03:03:58.789Z,12.375
2022-10-19T03:06:58.666Z,12.375
2022-10-19T03:09:58.256Z,12.312
2022-10-19T03:12:59.389Z,12.375
2022-10-19T03:15:58.532Z,12.375
2022-10-19T03:18:58.341Z,12.375
2022-10-19T03:21:58.546Z,12.375
2022-10-19T03:24:59.161Z,12.375
2022-10-19T03:27:59.145Z,12.375
2022-10-19T03:30:59.158Z,12.312
2022-10-19T03:33:59.161Z,12.312
2022-10-19T03:36:58.917Z,12.312
2022-10-19T03:39:59.046Z,12.312
2022-10-19T03:42:59.308Z,12.312
2022-10-19T03:45:59.228Z,12.312
2022-10-19T03:48:58.787Z,12.312
2022-10-19T03:51:59.073Z,12.312
2022-10-19T03:54:58.203Z,12.312
2022-10-19T03:57:58.480Z,12.25
2022-10-19T04:00:59.767Z,12.25
2022-10-19T04:03:58.151Z,12.25
2022-10-19T04:06:59.462Z,12.25
2022-10-19T04:09:59.429Z,12.25
2022-10-19T04:12:58.811Z,12.187
2022-10-19T04:15:59.056Z,12.125
2022-10-19T04:18:59.606Z,12.125
2022-10-19T04:21:58.499Z,12.125
2022-10-19T04:24:58.834Z,12.125
2022-10-19T04:27:58.883Z,12.125
2022-10-19T04:30:59.521Z,12.125
2022-10-19T04:33:58.782Z,12.125
2022-10-19T04:36:58.491Z,12.125
2022-10-19T04:39:59.069Z,12.125
2022-10-19T04:42:58.689Z,12.062
2022-10-19T04:45:59.414Z,12.125
2022-10-19T04:48:58.964Z,12.125
2022-10-19T04:51:59.392Z,12.125
2022-10-19T04:54:58.997Z,12.062
2022-10-19T04:57:59.309Z,12.125
2022-10-19T05:01:00.000Z,12.062
2022-10-19T05:03:59.277Z,12.062
2022-10-19T05:06:58.918Z,12.062
2022-10-19T05:09:59.659Z,12.062
2022-10-19T05:12:58.786Z,12.062
2022-10-19T05:15:59.762Z,12.062
2022-10-19T05:18:58.891Z,12.125
2022-10-19T05:21:58.644Z,12.125
2022-10-19T05:24:59.022Z,12.125
2022-10-19T05:27:58.888Z,12.125
2022-10-19T05:31:00.026Z,12.125
2022-10-19T05:33:59.285Z,12.125
2022-10-19T05:36:58.558Z,12.187
2022-10-19T05:39:59.240Z,12.187
2022-10-19T05:42:58.456Z,12.187
2022-10-19T05:45:59.887Z,12.187
2022-10-19T05:48:58.494Z,12.187
2022-10-19T05:51:59.362Z,12.25
2022-10-19T05:54:59.150Z,12.25
2022-10-19T05:57:59.067Z,12.25
2022-10-19T06:00:59.596Z,12.25
2022-10-19T06:03:59.113Z,12.312
2022-10-19T06:06:59.147Z,12.312
2022-10-19T06:09:59.397Z,12.312
2022-10-19T06:12:58.899Z,12.375
2022-10-19T06:15:59.929Z,12.375
2022-10-19T06:18:59.602Z,12.437
2022-10-19T06:21:59.286Z,12.375
2022-10-19T06:24:59.283Z,12.375
2022-10-19T06:27:58.822Z,12.375
2022-10-19T06:30:59.073Z,12.437
2022-10-19T06:33:58.713Z,12.437
2022-10-19T06:36:58.629Z,12.437
2022-10-19T06:40:02.415Z,12.5
2022-10-19T06:42:58.437Z,12.5
2022-10-19T06:45:58.643Z,12.562
2022-10-19T06:48:59.062Z,12.625
2022-10-19T06:51:59.241Z,12.75
2022-10-19T06:54:58.705Z,12.687
2022-10-19T06:57:58.266Z,12.687
2022-10-19T07:00:59.346Z,12.687
2022-10-19T07:03:59.284Z,12.75
2022-10-19T07:06:59.152Z,12.812
2022-10-19T07:09:59.233Z,12.812
2022-10-19T07:12:59.157Z,13.062
2022-10-19T07:15:58.721Z,12.937
2022-10-19T07:18:58.908Z,13.062
2022-10-19T07:21:58.097Z,13.062
2022-10-19T07:24:58.479Z,13.125
2022-10-19T07:27:58.455Z,13.062
2022-10-19T07:30:58.941Z,12.875
2022-10-19T07:33:58.776Z,12.937
2022-10-19T07:36:58.787Z,13.0
2022-10-19T07:39:58.813Z,13.125
2022-10-19T07:42:59.236Z,13.125
2022-10-19T07:45:58.594Z,13.625
2022-10-19T07:48:58.739Z,13.625
2022-10-19T07:51:59.648Z,13.687
2022-10-19T07:54:59.050Z,13.5
2022-10-19T07:57:58.997Z,13.5
2022-10-19T08:00:59.081Z,13.375
2022-10-19T08:06:59.240Z,13.812
2022-10-19T08:09:59.163Z,13.625
2022-10-19T08:12:59.301Z,13.562
2022-10-19T08:15:59.234Z,14.125
2022-10-19T08:18:59.144Z,13.875
2022-10-19T08:21:58.673Z,14.187
2022-10-19T08:24:59.044Z,14.875
2022-10-19T08:27:59.039Z,14.687
2022-10-19T08:30:58.989Z,14.687
2022-10-19T08:33:59.159Z,14.5
2022-10-19T08:36:59.625Z,14.687
2022-10-19T08:39:59.123Z,15.437
2022-10-19T08:42:58.931Z,15.437
2022-10-19T08:45:58.656Z,15.437
2022-10-19T08:48:58.879Z,14.875
2022-10-19T08:51:58.710Z,15.25
2022-10-19T08:54:59.275Z,15.625
2022-10-19T08:57:58.693Z,15.125
2022-10-19T09:00:59.639Z,15.5
2022-10-19T09:03:59.309Z,15.125
2022-10-19T09:06:59.416Z,15.187
2022-10-19T09:09:58.908Z,14.875
2022-10-19T09:12:58.913Z,14.687
2022-10-19T09:15:59.155Z,14.687
2022-10-19T09:18:59.347Z,15.125
2022-10-19T09:21:59.246Z,14.875
2022-10-19T09:24:58.303Z,15.312
2022-10-19T09:27:59.214Z,15.375
2022-10-19T09:30:58.832Z,15.25
2022-10-19T09:33:58.889Z,15.812
2022-10-19T09:36:58.708Z,16.5
2022-10-19T09:39:59.436Z,16.062
2022-10-19T09:42:59.328Z,16.125
2022-10-19T09:45:58.549Z,16.625
2022-10-19T09:48:58.199Z,15.875
2022-10-19T09:51:58.719Z,15.875
2022-10-19T09:54:59.635Z,15.562
2022-10-19T09:57:58.747Z,15.75
2022-10-19T10:00:59.297Z,15.75
2022-10-19T10:03:59.347Z,16.437
2022-10-19T10:06:59.105Z,16.437
2022-10-19T10:09:58.962Z,17.0
2022-10-19T10:12:58.979Z,16.625
2022-10-19T10:15:59.502Z,16.625
2022-10-19T10:18:58.488Z,16.5
2022-10-19T10:21:59.151Z,15.875
2022-10-19T10:24:58.998Z,16.375
2022-10-19T10:27:59.198Z,16.375
2022-10-19T10:30:59.306Z,16.562
2022-10-19T10:34:06.473Z,16.437
2022-10-19T10:36:59.292Z,17.125
2022-10-19T10:40:02.058Z,17.0
2022-10-19T10:42:59.142Z,17.0
2022-10-19T10:45:58.598Z,16.562
2022-10-19T10:48:59.089Z,15.875
2022-10-19T10:51:59.239Z,16.625
2022-10-19T10:54:59.237Z,17.5
2022-10-19T10:57:58.459Z,17.75
2022-10-19T11:00:58.942Z,18.125
2022-10-19T11:04:17.293Z,18.187
2022-10-19T11:06:58.694Z,17.625
2022-10-19T11:09:59.760Z,16.5
2022-10-19T11:12:59.253Z,16.375
2022-10-19T11:15:58.682Z,16.375
2022-10-19T11:18:58.517Z,16.062
2022-10-19T11:21:58.833Z,16.25
2022-10-19T11:24:59.031Z,15.937
2022-10-19T11:27:58.789Z,16.125
2022-10-19T11:30:59.540Z,16.125
2022-10-19T11:33:59.542Z,15.937
2022-10-19T11:36:58.645Z,16.187
2022-10-19T11:39:59.322Z,16.437
2022-10-19T11:42:58.661Z,16.125
2022-10-19T11:45:58.370Z,16.125
2022-10-19T11:48:59.293Z,16.125
2022-10-19T11:51:58.834Z,15.937
2022-10-19T11:54:58.583Z,15.937
2022-10-19T11:57:58.695Z,16.812
2022-10-19T12:00:59.527Z,17.5
2022-10-19T12:03:58.959Z,16.875
2022-10-19T12:06:59.918Z,17.375
2022-10-19T12:09:59.138Z,18.375
2022-10-19T12:12:58.865Z,18.375
2022-10-19T12:15:59.788Z,16.375
2022-10-19T12:18:59.060Z,17.437
2022-10-19T12:21:58.900Z,17.312
2022-10-19T12:24:58.757Z,16.812
2022-10-19T12:27:59.677Z,17.812
2022-10-19T12:30:59.304Z,16.875
2022-10-19T12:33:59.609Z,16.875
2022-10-19T12:36:59.053Z,16.875
2022-10-19T12:39:59.410Z,18.187
2022-10-19T12:42:58.972Z,18.187
2022-10-19T12:45:59.413Z,17.562
2022-10-19T12:48:59.017Z,17.75
2022-10-19T12:51:59.294Z,17.062
2022-10-19T12:54:58.530Z,17.062
2022-10-19T12:57:58.574Z,16.562
2022-10-19T13:00:59.548Z,16.562
2022-10-19T13:03:58.503Z,16.625
2022-10-19T13:06:58.842Z,16.375
2022-10-19T13:10:00.067Z,16.312
2022-10-19T13:12:59.111Z,16.375
2022-10-19T13:15:58.836Z,16.5
2022-10-19T13:18:59.141Z,16.437
2022-10-19T13:21:58.583Z,16.437
2022-10-19T13:25:02.147Z,16.625
2022-10-19T13:27:59.519Z,16.75
2022-10-19T13:31:04.856Z,16.687
2022-10-19T13:33:58.389Z,16.5
2022-10-19T13:36:58.862Z,16.5
2022-10-19T13:39:59.814Z,16.625
2022-10-19T13:42:58.906Z,17.375
2022-10-19T13:45:59.264Z,17.125
2022-10-19T13:48:58.697Z,17.187
2022-10-19T13:51:59.170Z,17.5
2022-10-19T13:54:58.582Z,17.437
2022-10-19T13:58:00.456Z,17.625
2022-10-19T14:00:58.679Z,17.625
2022-10-19T14:03:58.670Z,17.25
2022-10-19T14:06:58.504Z,16.937
2022-10-19T14:09:58.504Z,16.937
2022-10-19T14:12:59.286Z,16.625
2022-10-19T14:15:59.458Z,16.437
2022-10-19T14:18:59.325Z,16.375
2022-10-19T14:21:59.419Z,16.375
2022-10-19T14:24:59.267Z,16.437
2022-10-19T14:27:58.999Z,16.375
2022-10-19T14:30:59.037Z,16.375
2022-10-19T14:33:59.743Z,16.25
2022-10-19T14:36:58.992Z,16.187
2022-10-19T14:39:58.509Z,16.187
2022-10-19T14:42:59.445Z,16.062
2022-10-19T14:45:59.500Z,16.062
2022-10-19T14:48:58.951Z,16.0
2022-10-19T14:51:59.245Z,15.937
2022-10-19T14:54:59.438Z,15.937
2022-10-19T14:57:59.308Z,15.937
2022-10-19T15:00:59.415Z,15.875
2022-10-19T15:03:58.960Z,15.875
2022-10-19T15:06:59.158Z,15.875
2022-10-19T15:09:59.548Z,15.875
2022-10-19T15:12:58.338Z,15.812
2022-10-19T15:15:59.489Z,15.812
2022-10-19T15:21:58.555Z,15.437
2022-10-19T15:24:58.985Z,15.187
2022-10-19T15:27:59.206Z,15.0
2022-10-19T15:30:59.274Z,14.937
2022-10-19T15:33:59.234Z,14.812
2022-10-19T15:36:59.286Z,14.625
2022-10-19T15:39:59.731Z,14.5
2022-10-19T15:42:59.650Z,14.437
2022-10-19T15:45:59.743Z,14.25
2022-10-19T15:48:59.002Z,14.187
2022-10-19T15:51:58.901Z,14.062
2022-10-19T15:54:59.359Z,14.062
2022-10-19T15:57:59.104Z,13.812
2022-10-19T16:00:59.796Z,13.812
2022-10-19T16:03:59.833Z,13.625
2022-10-19T16:06:59.333Z,13.5
2022-10-19T16:09:58.887Z,13.437
2022-10-19T16:12:58.525Z,13.375
2022-10-19T16:16:10.116Z,13.312
2022-10-19T16:18:59.586Z,13.25
2022-10-19T16:21:58.651Z,13.187
2022-10-19T16:24:58.838Z,13.125
2022-10-19T16:27:58.513Z,13.062
2022-10-19T16:30:59.863Z,13.0
2022-10-19T16:33:58.931Z,12.937
2022-10-19T16:37:02.591Z,12.812
2022-10-19T16:40:00.228Z,12.75
2022-10-19T16:42:59.899Z,12.625
2022-10-19T16:45:59.521Z,12.562
2022-10-19T16:48:59.407Z,12.562
2022-10-19T16:51:59.212Z,12.5
2022-10-19T16:54:59.183Z,12.5
2022-10-19T16:57:58.356Z,12.437
2022-10-19T17:01:00.106Z,12.437
2022-10-19T17:03:58.985Z,12.375
2022-10-19T17:06:59.004Z,12.375
2022-10-19T17:09:58.978Z,12.375
2022-10-19T17:13:00.658Z,12.187
2022-10-19T17:15:58.787Z,12.0
2022-10-19T17:18:58.819Z,12.0
2022-10-19T17:21:59.432Z,12.0
2022-10-19T17:24:59.382Z,11.937
2022-10-19T17:27:58.844Z,11.875
2022-10-19T17:30:59.788Z,11.875
2022-10-19T17:33:59.403Z,11.812
2022-10-19T17:36:58.732Z,11.812
2022-10-19T17:39:59.454Z,11.75
2022-10-19T17:42:58.255Z,11.75
2022-10-19T17:45:59.425Z,11.687
2022-10-19T17:48:59.253Z,11.625
2022-10-19T17:51:59.250Z,11.687
2022-10-19T17:55:12.570Z,11.812
2022-10-19T17:57:58.483Z,11.75
2022-10-19T18:01:25.746Z,11.625
2022-10-19T18:03:58.725Z,11.5
2022-10-19T18:06:59.172Z,11.5
2022-10-19T18:09:58.757Z,11.625
2022-10-19T18:12:58.998Z,11.625
2022-10-19T18:15:59.008Z,11.812
2022-10-19T18:18:59.220Z,11.75
2022-10-19T18:21:58.799Z,11.687
2022-10-19T18:24:59.381Z,11.75
2022-10-19T18:27:58.929Z,11.625
2022-10-19T18:30:59.825Z,11.625
2022-10-19T18:33:58.743Z,11.5
2022-10-19T18:36:58.753Z,11.5
2022-10-19T18:39:59.285Z,11.437
2022-10-19T18:42:59.537Z,11.312
2022-10-19T18:45:59.467Z,11.25
2022-10-19T18:48:59.543Z,11.187
2022-10-19T18:51:59.326Z,11.187
2022-10-19T18:54:59.549Z,11.25
2022-10-19T18:57:59.083Z,11.25
2022-10-19T19:00:58.452Z,11.25
2022-10-19T19:03:58.396Z,11.187
2022-10-19T19:06:59.930Z,11.25
2022-10-19T19:09:59.742Z,11.25
2022-10-19T19:12:59.061Z,11.125
2022-10-19T19:15:59.321Z,11.187
2022-10-19T19:18:59.556Z,11.187
2022-10-19T19:21:58.687Z,11.125
2022-10-19T19:24:58.948Z,11.125
2022-10-19T19:27:59.209Z,11.125
2022-10-19T19:30:59.103Z,11.125
2022-10-19T19:33:58.378Z,11.187
2022-10-19T19:36:59.135Z,11.187
2022-10-19T19:39:59.792Z,11.187
2022-10-19T19:42:59.205Z,11.125
2022-10-19T19:46:01.938Z,11.125
2022-10-19T19:48:58.728Z,11.125
2022-10-19T19:51:59.463Z,10.937
2022-10-19T19:54:59.348Z,10.937
2022-10-19T19:57:58.620Z,10.875
2022-10-19T20:00:59.628Z,10.875
2022-10-19T20:03:59.146Z,10.812
2022-10-19T20:06:58.514Z,10.812
2022-10-19T20:09:59.720Z,10.625
2022-10-19T20:12:59.019Z,10.687
2022-10-19T20:15:59.266Z,10.687
2022-10-19T20:18:58.357Z,10.625
2022-10-19T20:21:59.038Z,10.562
2022-10-19T20:24:59.239Z,10.562
2022-10-19T20:27:58.383Z,10.562
2022-10-19T20:30:59.367Z,10.687
2022-10-19T20:33:58.729Z,10.5
2022-10-19T20:36:58.627Z,10.562
2022-10-19T20:39:59.123Z,10.625
2022-10-19T20:42:58.743Z,10.687
2022-10-19T20:45:58.938Z,10.687
2022-10-19T20:48:58.481Z,10.687
2022-10-19T20:51:58.606Z,10.687
2022-10-19T20:54:58.664Z,10.687
2022-10-19T20:57:59.490Z,10.625
2022-10-19T21:00:59.149Z,10.625
2022-10-19T21:03:59.198Z,10.625
2022-10-19T21:06:59.484Z,10.5
2022-10-19T21:09:59.055Z,10.437
2022-10-19T21:12:59.402Z,10.437
2022-10-19T21:15:58.706Z,10.375
2022-10-19T21:18:59.365Z,10.375
2022-10-19T21:21:58.859Z,10.312
2022-10-19T21:24:58.953Z,10.25
2022-10-19T21:27:59.256Z,10.312
2022-10-19T21:30:58.426Z,10.25
2022-10-19T21:33:59.224Z,10.125
2022-10-19T21:36:59.319Z,10.125
2022-10-19T21:39:58.956Z,10.125
2022-10-19T21:42:59.214Z,10.125
2022-10-19T21:45:59.162Z,10.0
2022-10-19T21:48:59.086Z,9.937
2022-10-19T21:51:59.045Z,9.937
2022-10-19T21:54:59.063Z,9.937
2022-10-19T21:57:59.100Z,9.937
2022-10-19T22:00:59.334Z,9.937
2022-10-19T22:03:58.866Z,9.875
2022-10-19T22:06:58.376Z,9.875
2022-10-19T22:09:59.017Z,9.812
2022-10-19T22:12:58.122Z,9.75
2022-10-19T22:15:58.969Z,9.812
2022-10-19T22:18:58.790Z,9.687
2022-10-19T22:21:59.004Z,9.625
2022-10-19T22:24:58.952Z,9.5
2022-10-19T22:27:58.969Z,9.5
2022-10-19T22:30:59.424Z,9.312
2022-10-19T22:33:58.780Z,9.25
2022-10-19T22:36:58.531Z,9.187
2022-10-19T22:39:59.291Z,9.187
2022-10-19T22:42:59.982Z,9.125
2022-10-19T22:45:58.331Z,9.062
2022-10-19T22:48:58.891Z,9.0
2022-10-19T22:51:58.996Z,9.0
2022-10-19T22:54:58.200Z,9.0
2022-10-19T22:57:59.623Z,9.125
2022-10-19T23:00:59.352Z,9.125
2022-10-19T23:03:58.518Z,9.187
2022-10-19T23:06:58.725Z,9.312
2022-10-19T23:09:58.985Z,9.25
2022-10-19T23:12:59.450Z,9.25
2022-10-19T23:15:58.911Z,9.125
2022-10-19T23:18:58.210Z,9.125
2022-10-19T23:21:58.737Z,9.0
2022-10-19T23:24:58.640Z,9.0
2022-10-19T23:27:59.371Z,8.937
2022-10-19T23:31:14.320Z,9.0
2022-10-19T23:33:58.666Z,9.187
2022-10-19T23:36:59.201Z,9.187
2022-10-19T23:39:59.673Z,9.062
2022-10-19T23:42:58.527Z,9.125
2022-10-19T23:45:58.490Z,9.125
2022-10-19T23:48:58.550Z,9.187
2022-10-19T23:51:58.395Z,9.187
2022-10-19T23:54:59.245Z,9.25
2022-10-19T23:57:58.381Z,9.312
